Time;durP1;ratioP1;P1;durP2;ratioP2;P2;SDS_P1;SDS_P2;PMS_P1;PMS_P2;Temp;Humidity;BMP_temperature;BMP_pressure;BME280_temperature;BME280_humidity;BME280_pressure;Samples;Min_cycle;Max_cycle;Signal;HPM_P1;HPM_P2
2022/03/02 00:01:58;;;;;;;61.30;18.05;;;;;;;;;;4999620;28;20053;-58
2022/03/02 00:04:23;;;;;;;89.88;23.17;;;;;;;;;;4998753;28;20033;-57
2022/03/02 00:06:49;;;;;;;181.10;30.05;;;;;;;;;;5000505;28;20033;-57
2022/03/02 00:09:15;;;;;;;126.53;26.00;;;;;;;;;;5000335;28;20086;-57
2022/03/02 00:11:42;;;;;;;56.00;21.83;;;;;;;;;;4996901;28;20113;-55
2022/03/02 00:14:07;;;;;;;78.68;22.30;;;;;;;;;;4997244;28;20088;-56
2022/03/02 00:16:34;;;;;;;157.20;23.60;;;;;;;;;;4998017;28;20042;-57
2022/03/02 00:19:01;;;;;;;108.03;22.48;;;;;;;;;;5014080;28;21808;-58
2022/03/02 00:21:27;;;;;;;82.25;19.55;;;;;;;;;;5000229;28;20080;-55
2022/03/02 00:23:53;;;;;;;50.10;19.10;;;;;;;;;;4998186;28;20136;-57
2022/03/02 00:26:19;;;;;;;68.53;15.98;;;;;;;;;;4996572;28;20137;-53
2022/03/02 00:28:45;;;;;;;82.53;20.98;;;;;;;;;;5013588;28;20480;-55
2022/03/02 00:31:11;;;;;;;177.93;26.73;;;;;;;;;;5010384;28;20068;-52
2022/03/02 00:33:37;;;;;;;115.97;21.55;;;;;;;;;;4995431;28;20386;-57
2022/03/02 00:36:03;;;;;;;151.38;25.58;;;;;;;;;;5001323;28;20038;-55
2022/03/02 00:38:29;;;;;;;98.88;26.60;;;;;;;;;;5000994;28;20828;-56
2022/03/02 00:40:55;;;;;;;184.35;23.90;;;;;;;;;;5002699;28;20049;-56
2022/03/02 00:43:21;;;;;;;77.35;20.60;;;;;;;;;;5000159;28;20038;-57
2022/03/02 00:45:47;;;;;;;47.83;18.40;;;;;;;;;;5002880;28;20196;-57
2022/03/02 00:48:13;;;;;;;80.95;19.90;;;;;;;;;;5000763;28;20044;-54
2022/03/02 00:50:40;;;;;;;102.20;20.05;;;;;;;;;;5000263;28;20072;-56
2022/03/02 00:53:07;;;;;;;48.97;18.88;;;;;;;;;;5000009;28;20042;-57
2022/03/02 00:55:33;;;;;;;38.90;17.48;;;;;;;;;;4996881;28;20855;-56
2022/03/02 00:58:01;;;;;;;32.55;16.98;;;;;;;;;;5000075;28;20041;-56
2022/03/02 01:00:27;;;;;;;33.90;17.75;;;;;;;;;;4996140;28;20049;-55
2022/03/02 01:02:53;;;;;;;54.08;18.75;;;;;;;;;;4997875;28;20578;-56
2022/03/02 01:05:19;;;;;;;63.63;18.40;;;;;;;;;;4996747;28;20042;-57
2022/03/02 01:07:45;;;;;;;59.65;19.05;;;;;;;;;;4998081;28;20029;-56
2022/03/02 01:10:11;;;;;;;75.05;20.52;;;;;;;;;;4998504;28;20049;-57
2022/03/02 01:12:37;;;;;;;131.45;23.45;;;;;;;;;;4999097;28;20045;-57
2022/03/02 01:15:05;;;;;;;98.68;20.40;;;;;;;;;;4999408;28;20045;-56
2022/03/02 01:17:31;;;;;;;46.70;17.73;;;;;;;;;;4997170;28;20065;-54
2022/03/02 01:19:57;;;;;;;97.63;19.85;;;;;;;;;;4997875;28;20064;-56
2022/03/02 01:22:23;;;;;;;114.97;19.15;;;;;;;;;;4999037;28;20486;-55
2022/03/02 01:24:49;;;;;;;97.45;21.42;;;;;;;;;;4997838;28;20136;-53
2022/03/02 01:27:15;;;;;;;88.53;20.52;;;;;;;;;;4997164;28;20125;-53
2022/03/02 01:29:41;;;;;;;156.43;23.65;;;;;;;;;;4997969;28;20088;-54
2022/03/02 01:32:09;;;;;;;154.63;25.88;;;;;;;;;;4997999;28;20052;-55
2022/03/02 01:34:35;;;;;;;60.50;17.70;;;;;;;;;;4996714;28;20180;-54
2022/03/02 01:37:01;;;;;;;75.20;18.77;;;;;;;;;;4999171;28;20053;-56
2022/03/02 01:39:26;;;;;;;68.57;19.52;;;;;;;;;;4997782;28;20118;-57
2022/03/02 01:41:53;;;;;;;98.93;20.50;;;;;;;;;;4999119;28;20055;-56
2022/03/02 01:44:19;;;;;;;101.38;23.98;;;;;;;;;;4995787;28;20039;-57
2022/03/02 01:46:45;;;;;;;94.03;20.27;;;;;;;;;;4998336;28;20038;-56
2022/03/02 01:49:11;;;;;;;92.05;21.40;;;;;;;;;;4997079;28;20038;-52
2022/03/02 01:51:37;;;;;;;78.00;19.60;;;;;;;;;;5011570;28;20092;-53
2022/03/02 01:54:04;;;;;;;63.08;19.80;;;;;;;;;;5030978;28;20120;-56
2022/03/02 01:56:30;;;;;;;86.55;21.13;;;;;;;;;;4997905;28;20033;-56
2022/03/02 01:58:56;;;;;;;56.00;19.55;;;;;;;;;;5012976;28;20502;-56
2022/03/02 02:01:22;;;;;;;44.17;19.30;;;;;;;;;;4997100;28;20050;-55
2022/03/02 02:03:48;;;;;;;37.80;17.38;;;;;;;;;;4997979;28;20030;-54
2022/03/02 02:06:14;;;;;;;55.72;17.00;;;;;;;;;;4996393;28;20041;-53
2022/03/02 02:08:41;;;;;;;61.35;18.02;;;;;;;;;;4993797;28;20034;-55
2022/03/02 02:11:08;;;;;;;41.00;15.95;;;;;;;;;;4998674;28;21991;-55
2022/03/02 02:13:34;;;;;;;38.92;16.65;;;;;;;;;;5001313;28;20081;-55
2022/03/02 02:16:02;;;;;;;35.20;15.80;;;;;;;;;;5001193;28;20152;-55
2022/03/02 02:18:28;;;;;;;41.47;15.90;;;;;;;;;;4997567;28;20074;-55
2022/03/02 02:20:54;;;;;;;76.38;19.45;;;;;;;;;;5002370;28;20109;-56
2022/03/02 02:23:20;;;;;;;81.82;20.40;;;;;;;;;;4999822;28;20418;-57
2022/03/02 02:25:46;;;;;;;68.70;19.15;;;;;;;;;;5001865;28;20046;-55
2022/03/02 02:28:13;;;;;;;99.95;19.50;;;;;;;;;;5000951;28;20669;-55
2022/03/02 02:30:42;;;;;;;82.13;18.83;;;;;;;;;;5001710;28;20045;-56
2022/03/02 02:33:08;;;;;;;61.03;17.92;;;;;;;;;;4998974;28;20073;-56
2022/03/02 02:35:34;;;;;;;80.32;18.05;;;;;;;;;;5007308;28;20152;-56
2022/03/02 02:38:00;;;;;;;79.32;20.17;;;;;;;;;;5002119;28;20198;-55
2022/03/02 02:40:28;;;;;;;82.60;18.77;;;;;;;;;;5000979;28;20061;-55
2022/03/02 02:42:54;;;;;;;55.55;15.23;;;;;;;;;;5001372;28;20056;-55
2022/03/02 02:45:21;;;;;;;88.13;16.58;;;;;;;;;;4998380;28;20033;-54
2022/03/02 02:47:50;;;;;;;79.18;19.25;;;;;;;;;;5000873;28;20038;-57
2022/03/02 02:50:17;;;;;;;107.75;19.52;;;;;;;;;;5002106;28;20545;-56
2022/03/02 02:52:43;;;;;;;83.72;16.63;;;;;;;;;;4998530;28;20048;-56
2022/03/02 02:55:10;;;;;;;163.18;20.63;;;;;;;;;;4999253;28;20037;-53
2022/03/02 02:57:36;;;;;;;162.35;22.33;;;;;;;;;;5000754;28;20041;-55
2022/03/02 03:00:02;;;;;;;130.13;23.35;;;;;;;;;;5001535;28;20140;-54
2022/03/02 03:02:28;;;;;;;144.63;24.73;;;;;;;;;;4999991;28;20511;-59
2022/03/02 03:04:54;;;;;;;144.88;25.38;;;;;;;;;;5000256;28;20049;-58
2022/03/02 03:07:20;;;;;;;168.32;26.00;;;;;;;;;;5002543;28;20073;-56
2022/03/02 03:09:46;;;;;;;112.07;21.48;;;;;;;;;;5006179;28;20053;-55
2022/03/02 03:12:11;;;;;;;166.32;25.30;;;;;;;;;;5014441;28;20565;-51
2022/03/02 03:14:37;;;;;;;150.27;23.42;;;;;;;;;;5001947;28;20045;-55
2022/03/02 03:17:03;;;;;;;183.07;28.98;;;;;;;;;;4999969;28;20088;-54
2022/03/02 03:19:29;;;;;;;248.38;30.52;;;;;;;;;;4998081;28;20042;-55
2022/03/02 03:21:55;;;;;;;181.13;29.05;;;;;;;;;;4998364;28;21742;-54
2022/03/02 03:24:21;;;;;;;159.80;24.52;;;;;;;;;;4997315;28;20312;-56
2022/03/02 03:26:47;;;;;;;192.30;27.33;;;;;;;;;;4999713;28;20041;-57
2022/03/02 03:29:13;;;;;;;158.98;29.20;;;;;;;;;;4999160;28;20046;-56
2022/03/02 03:31:39;;;;;;;202.32;26.02;;;;;;;;;;4999572;28;20080;-55
2022/03/02 03:34:05;;;;;;;151.10;24.88;;;;;;;;;;5002935;28;20034;-54
2022/03/02 03:36:31;;;;;;;135.18;25.75;;;;;;;;;;4998405;28;20046;-55
2022/03/02 03:38:57;;;;;;;187.63;27.63;;;;;;;;;;4999851;28;20045;-55
2022/03/02 03:41:23;;;;;;;157.80;25.23;;;;;;;;;;4998818;28;20041;-53
2022/03/02 03:43:49;;;;;;;178.48;26.73;;;;;;;;;;4996755;28;20049;-53
2022/03/02 03:46:15;;;;;;;128.98;22.00;;;;;;;;;;4999431;28;20912;-55
2022/03/02 03:48:41;;;;;;;191.40;28.40;;;;;;;;;;4999952;28;20045;-55
2022/03/02 03:51:07;;;;;;;177.20;30.50;;;;;;;;;;4999382;28;20092;-52
2022/03/02 03:53:33;;;;;;;145.07;25.30;;;;;;;;;;4997389;28;20133;-56
2022/03/02 03:55:58;;;;;;;187.93;24.05;;;;;;;;;;5007549;28;20041;-53
2022/03/02 03:58:24;;;;;;;275.60;27.45;;;;;;;;;;4999065;28;20041;-54
2022/03/02 04:00:50;;;;;;;255.90;32.33;;;;;;;;;;5002701;28;20037;-53
2022/03/02 04:03:16;;;;;;;279.60;34.13;;;;;;;;;;5004203;28;20140;-53
2022/03/02 04:05:42;;;;;;;211.85;34.03;;;;;;;;;;4997292;28;20033;-55
2022/03/02 04:08:08;;;;;;;307.13;32.75;;;;;;;;;;5001678;28;20195;-56
2022/03/02 04:10:35;;;;;;;226.63;27.73;;;;;;;;;;5000097;28;20066;-55
2022/03/02 04:13:01;;;;;;;216.02;27.88;;;;;;;;;;5003971;28;20046;-56
2022/03/02 04:15:26;;;;;;;273.80;32.90;;;;;;;;;;5001590;28;20049;-56
2022/03/02 04:17:52;;;;;;;238.93;36.63;;;;;;;;;;4999548;28;20098;-56
2022/03/02 04:20:18;;;;;;;204.70;22.13;;;;;;;;;;4999024;28;20042;-53
2022/03/02 04:22:44;;;;;;;52.35;8.25;;;;;;;;;;4995775;28;20129;-55
2022/03/02 04:25:10;;;;;;;241.02;31.58;;;;;;;;;;4996261;28;20038;-56
2022/03/02 04:27:36;;;;;;;137.15;16.42;;;;;;;;;;4999466;28;20045;-55
2022/03/02 04:30:03;;;;;;;271.05;33.90;;;;;;;;;;4998303;28;20049;-55
2022/03/02 04:32:29;;;;;;;57.70;9.82;;;;;;;;;;4997355;28;20046;-53
2022/03/02 04:34:54;;;;;;;210.45;21.50;;;;;;;;;;4997795;28;20045;-57
2022/03/02 04:37:20;;;;;;;221.50;30.05;;;;;;;;;;4997388;28;20041;-56
2022/03/02 04:39:46;;;;;;;142.60;18.25;;;;;;;;;;4997673;28;20626;-56
2022/03/02 04:42:12;;;;;;;114.38;17.80;;;;;;;;;;4996801;28;20038;-54
2022/03/02 04:44:38;;;;;;;337.65;35.50;;;;;;;;;;4994984;28;20045;-55
2022/03/02 04:47:04;;;;;;;226.35;39.15;;;;;;;;;;4988717;28;20558;-55
2022/03/02 04:49:30;;;;;;;245.27;38.85;;;;;;;;;;4995051;28;20041;-56
2022/03/02 04:51:56;;;;;;;223.63;33.55;;;;;;;;;;4996437;28;20046;-57
2022/03/02 04:57:07;;;;;;;293.70;41.45;;;;;;;;;;4995289;28;20083;-56
2022/03/02 04:59:33;;;;;;;268.85;33.40;;;;;;;;;;4995031;28;20044;-56
2022/03/02 05:01:59;;;;;;;264.30;34.35;;;;;;;;;;4998857;28;20050;-55
2022/03/02 05:04:25;;;;;;;234.68;34.55;;;;;;;;;;5018991;28;20107;-53
2022/03/02 05:06:50;;;;;;;193.50;32.45;;;;;;;;;;5003097;28;20033;-55
2022/03/02 05:09:16;;;;;;;309.60;36.85;;;;;;;;;;4997914;28;20046;-54
2022/03/02 05:11:42;;;;;;;295.83;37.95;;;;;;;;;;4994653;28;20050;-55
2022/03/02 05:14:10;;;;;;;159.15;27.05;;;;;;;;;;4998718;28;20164;-55
2022/03/02 05:16:36;;;;;;;256.63;39.05;;;;;;;;;;4993836;28;20037;-54
2022/03/02 05:19:02;;;;;;;165.68;32.67;;;;;;;;;;4995785;28;20038;-55
2022/03/02 05:21:28;;;;;;;197.23;32.88;;;;;;;;;;4997598;28;21914;-56
2022/03/02 05:23:54;;;;;;;260.38;33.88;;;;;;;;;;4995691;28;20038;-56
2022/03/02 05:26:20;;;;;;;256.92;35.60;;;;;;;;;;4994539;28;20042;-55
2022/03/02 05:28:46;;;;;;;126.72;23.52;;;;;;;;;;4996712;28;20054;-56
2022/03/02 05:31:12;;;;;;;161.75;28.55;;;;;;;;;;4997451;28;20094;-55
2022/03/02 05:33:37;;;;;;;230.80;32.13;;;;;;;;;;4996382;28;20091;-55
2022/03/02 05:36:03;;;;;;;166.30;24.25;;;;;;;;;;5029964;28;20038;-54
2022/03/02 05:38:29;;;;;;;287.63;31.85;;;;;;;;;;4997484;28;20042;-54
2022/03/02 05:40:55;;;;;;;197.20;28.73;;;;;;;;;;4995901;28;20779;-56
2022/03/02 05:43:21;;;;;;;163.45;27.60;;;;;;;;;;4998253;28;20049;-56
2022/03/02 05:45:47;;;;;;;252.75;31.45;;;;;;;;;;4999239;28;21395;-53
2022/03/02 05:48:13;;;;;;;191.45;29.15;;;;;;;;;;5003097;28;20044;-55
2022/03/02 05:50:39;;;;;;;297.40;37.10;;;;;;;;;;5032314;28;20665;-57
2022/03/02 05:53:04;;;;;;;208.40;28.42;;;;;;;;;;5003385;28;20043;-57
2022/03/02 05:55:30;;;;;;;166.75;23.92;;;;;;;;;;5002365;28;20156;-55
2022/03/02 05:57:56;;;;;;;177.52;22.60;;;;;;;;;;5003653;28;20418;-56
2022/03/02 06:00:22;;;;;;;166.15;21.70;;;;;;;;;;5002311;28;20038;-54
2022/03/02 06:02:48;;;;;;;208.35;26.55;;;;;;;;;;5000761;28;20108;-55
2022/03/02 06:05:14;;;;;;;183.82;29.60;;;;;;;;;;5007204;28;20047;-57
2022/03/02 06:07:40;;;;;;;169.65;21.30;;;;;;;;;;5002032;28;20041;-55
2022/03/02 06:10:06;;;;;;;146.25;24.45;;;;;;;;;;5005223;28;20049;-55
2022/03/02 06:12:32;;;;;;;135.48;19.65;;;;;;;;;;5001579;28;20034;-55
2022/03/02 06:14:58;;;;;;;168.32;23.23;;;;;;;;;;5002783;28;20037;-54
2022/03/02 06:17:26;;;;;;;86.45;11.77;;;;;;;;;;5004022;28;20041;-55
2022/03/02 06:19:52;;;;;;;117.35;18.13;;;;;;;;;;5002070;28;21355;-55
2022/03/02 06:22:21;;;;;;;125.18;17.90;;;;;;;;;;4999674;28;20045;-56
2022/03/02 06:24:47;;;;;;;186.50;30.67;;;;;;;;;;5000432;28;20046;-53
2022/03/02 06:27:13;;;;;;;145.07;34.75;;;;;;;;;;5001053;28;20080;-52
2022/03/02 06:29:39;;;;;;;206.98;32.90;;;;;;;;;;5000139;28;20097;-53
2022/03/02 06:32:05;;;;;;;147.45;30.02;;;;;;;;;;5000709;28;20522;-53
2022/03/02 06:34:32;;;;;;;72.28;20.05;;;;;;;;;;5000088;28;21882;-56
2022/03/02 06:36:58;;;;;;;170.07;32.53;;;;;;;;;;5000456;28;20108;-55
2022/03/02 06:39:24;;;;;;;154.10;25.92;;;;;;;;;;5003562;28;20034;-53
2022/03/02 06:41:50;;;;;;;132.40;33.05;;;;;;;;;;5002484;28;20850;-55
2022/03/02 06:44:38;;;;;;;165.93;28.95;;;;;;;;;;5002888;28;20042;-54
2022/03/02 06:47:09;;;;;;;118.43;27.92;;;;;;;;;;4996266;28;20046;-55
2022/03/02 06:49:56;;;;;;;119.07;23.35;;;;;;;;;;5002374;28;20565;-52
2022/03/02 06:52:24;;;;;;;149.05;27.73;;;;;;;;;;4998336;28;20045;-53
2022/03/02 06:54:50;;;;;;;114.32;22.85;;;;;;;;;;5016072;28;20140;-56
2022/03/02 06:57:18;;;;;;;173.73;25.77;;;;;;;;;;4999367;28;20042;-55
2022/03/02 06:59:44;;;;;;;102.75;23.10;;;;;;;;;;5030061;28;20412;-54
2022/03/02 07:02:12;;;;;;;65.47;20.55;;;;;;;;;;4998838;28;20129;-56
2022/03/02 07:04:39;;;;;;;95.93;25.73;;;;;;;;;;4999415;28;20050;-53
2022/03/02 07:07:05;;;;;;;99.22;21.73;;;;;;;;;;4999770;28;20034;-54
2022/03/02 07:09:32;;;;;;;80.93;16.42;;;;;;;;;;5001041;28;20049;-54
2022/03/02 07:12:01;;;;;;;98.28;23.30;;;;;;;;;;5002371;28;20066;-56
2022/03/02 07:14:31;;;;;;;66.78;22.40;;;;;;;;;;4998966;28;20042;-56
2022/03/02 07:16:58;;;;;;;142.65;26.70;;;;;;;;;;4998148;28;20590;-55
2022/03/02 07:19:24;;;;;;;71.25;23.80;;;;;;;;;;4997637;28;20404;-55
2022/03/02 07:21:50;;;;;;;150.13;27.08;;;;;;;;;;4999914;28;20529;-55
2022/03/02 07:24:17;;;;;;;95.93;26.83;;;;;;;;;;4999162;28;20042;-55
2022/03/02 07:26:50;;;;;;;82.85;23.00;;;;;;;;;;4999822;28;20247;-56
2022/03/02 07:29:16;;;;;;;111.43;25.93;;;;;;;;;;5002376;28;20042;-56
2022/03/02 07:31:43;;;;;;;119.38;26.33;;;;;;;;;;5000073;28;20077;-55
2022/03/02 07:34:11;;;;;;;126.03;28.25;;;;;;;;;;4998436;28;20153;-55
2022/03/02 07:36:48;;;;;;;177.98;31.13;;;;;;;;;;5001016;28;20072;-55
2022/03/02 07:39:14;;;;;;;124.65;32.80;;;;;;;;;;5007896;28;20046;-54
2022/03/02 07:41:40;;;;;;;127.13;27.90;;;;;;;;;;4997040;28;20077;-55
2022/03/02 07:44:06;;;;;;;126.18;30.15;;;;;;;;;;4998805;28;20157;-54
2022/03/02 07:46:33;;;;;;;153.10;34.53;;;;;;;;;;4998934;28;20081;-55
2022/03/02 07:48:59;;;;;;;111.63;28.65;;;;;;;;;;5001003;28;20042;-56
2022/03/02 07:51:25;;;;;;;123.45;33.13;;;;;;;;;;5001109;28;20073;-52
2022/03/02 07:53:55;;;;;;;133.52;28.35;;;;;;;;;;5002523;28;20112;-55
2022/03/02 07:56:22;;;;;;;101.47;28.50;;;;;;;;;;5000902;28;20037;-53
2022/03/02 07:58:49;;;;;;;133.70;33.85;;;;;;;;;;5004338;28;20519;-53
2022/03/02 08:01:18;;;;;;;94.93;24.20;;;;;;;;;;5002542;28;20042;-56
2022/03/02 08:03:44;;;;;;;126.72;31.80;;;;;;;;;;4997826;28;20304;-55
2022/03/02 08:06:10;;;;;;;69.28;24.40;;;;;;;;;;5001199;28;20184;-55
2022/03/02 08:08:37;;;;;;;85.30;23.23;;;;;;;;;;4999358;28;20515;-55
2022/03/02 08:11:06;;;;;;;90.15;30.42;;;;;;;;;;4998481;28;20434;-56
2022/03/02 08:13:33;;;;;;;108.78;29.38;;;;;;;;;;4998455;28;20041;-56
2022/03/02 08:15:59;;;;;;;90.30;25.42;;;;;;;;;;4999659;28;20034;-56
2022/03/02 08:18:26;;;;;;;106.20;27.30;;;;;;;;;;4999067;28;20069;-55
2022/03/02 08:20:53;;;;;;;81.05;23.27;;;;;;;;;;5001127;28;20049;-54
2022/03/02 08:23:20;;;;;;;79.75;27.15;;;;;;;;;;4999209;28;21009;-55
2022/03/02 08:25:52;;;;;;;66.55;22.35;;;;;;;;;;4998496;28;20064;-53
2022/03/02 08:28:20;;;;;;;80.82;23.80;;;;;;;;;;4999222;28;20065;-53
2022/03/02 08:30:48;;;;;;;73.70;25.73;;;;;;;;;;5020207;28;20029;-56
2022/03/02 08:33:25;;;;;;;72.10;21.95;;;;;;;;;;5003329;28;20446;-55
2022/03/02 08:35:51;;;;;;;76.43;24.67;;;;;;;;;;4999958;28;20113;-51
2022/03/02 08:38:17;;;;;;;95.50;23.15;;;;;;;;;;5002243;28;20144;-55
2022/03/02 08:40:43;;;;;;;105.28;26.35;;;;;;;;;;4999742;28;20033;-54
2022/03/02 08:43:09;;;;;;;89.90;24.90;;;;;;;;;;5000323;28;20052;-55
2022/03/02 08:45:35;;;;;;;69.50;20.42;;;;;;;;;;4999602;28;20553;-54
2022/03/02 08:48:03;;;;;;;54.15;20.85;;;;;;;;;;4999475;28;20114;-54
2022/03/02 08:50:29;;;;;;;92.95;29.65;;;;;;;;;;4997676;28;20131;-55
2022/03/02 08:52:56;;;;;;;66.53;23.73;;;;;;;;;;4998590;28;20579;-56
2022/03/02 08:55:23;;;;;;;74.28;27.23;;;;;;;;;;4997813;28;20096;-53
2022/03/02 08:57:51;;;;;;;81.72;27.25;;;;;;;;;;4999744;28;20046;-55
2022/03/02 09:00:17;;;;;;;78.63;26.17;;;;;;;;;;4997880;28;20047;-55
2022/03/02 09:02:46;;;;;;;76.20;26.83;;;;;;;;;;4996511;28;20099;-55
2022/03/02 09:05:12;;;;;;;55.47;20.98;;;;;;;;;;4997161;28;20649;-54
2022/03/02 09:07:38;;;;;;;78.88;22.70;;;;;;;;;;4997505;28;20048;-55
2022/03/02 09:10:04;;;;;;;110.28;27.92;;;;;;;;;;4997444;28;20407;-54
2022/03/02 09:12:30;;;;;;;98.32;24.00;;;;;;;;;;4995795;28;20143;-54
2022/03/02 09:14:57;;;;;;;83.05;24.70;;;;;;;;;;4996832;28;20507;-52
2022/03/02 09:17:24;;;;;;;78.30;23.48;;;;;;;;;;4995946;28;20041;-52
2022/03/02 09:19:50;;;;;;;56.60;19.60;;;;;;;;;;4997468;28;20048;-55
2022/03/02 09:22:17;;;;;;;62.28;22.88;;;;;;;;;;4997421;28;20061;-55
2022/03/02 09:24:44;;;;;;;88.68;24.27;;;;;;;;;;4996573;28;20104;-54
2022/03/02 09:27:11;;;;;;;70.15;21.85;;;;;;;;;;4998503;28;20385;-52
2022/03/02 09:29:39;;;;;;;58.35;23.15;;;;;;;;;;4987480;28;20101;-54
2022/03/02 09:32:05;;;;;;;58.83;22.13;;;;;;;;;;4998482;28;20052;-54
2022/03/02 09:34:33;;;;;;;47.85;20.50;;;;;;;;;;4997770;28;21781;-54
2022/03/02 09:36:59;;;;;;;48.17;20.15;;;;;;;;;;4997830;28;20066;-55
2022/03/02 09:39:25;;;;;;;57.13;20.67;;;;;;;;;;4997181;28;20596;-54
2022/03/02 09:42:00;;;;;;;46.50;19.60;;;;;;;;;;5028796;28;20519;-51
2022/03/02 09:44:31;;;;;;;55.40;23.38;;;;;;;;;;5027064;28;20046;-54
2022/03/02 09:47:00;;;;;;;54.47;20.08;;;;;;;;;;5004953;28;20176;-54
2022/03/02 09:49:29;;;;;;;48.95;19.65;;;;;;;;;;4999169;28;20797;-53
2022/03/02 09:52:08;;;;;;;48.72;20.83;;;;;;;;;;4997300;28;20030;-54
2022/03/02 09:54:37;;;;;;;46.00;19.50;;;;;;;;;;4997059;28;20042;-54
2022/03/02 09:57:04;;;;;;;73.30;23.10;;;;;;;;;;5000300;28;20061;-53
2022/03/02 09:59:33;;;;;;;68.30;22.92;;;;;;;;;;5004438;28;21470;-56
2022/03/02 10:02:00;;;;;;;64.43;22.02;;;;;;;;;;5004908;28;20042;-55
2022/03/02 10:04:28;;;;;;;44.30;20.80;;;;;;;;;;5000628;28;20041;-53
2022/03/02 10:09:45;;;;;;;46.13;19.40;;;;;;;;;;5000621;28;20060;-55
2022/03/02 10:12:12;;;;;;;63.67;21.45;;;;;;;;;;4999573;28;20042;-54
2022/03/02 10:14:38;;;;;;;77.82;22.10;;;;;;;;;;4998650;28;20042;-53
2022/03/02 10:17:04;;;;;;;72.97;23.25;;;;;;;;;;4998218;28;20053;-53
2022/03/02 10:19:30;;;;;;;43.00;18.95;;;;;;;;;;5011689;28;20046;-53
2022/03/02 10:22:13;;;;;;;42.08;19.35;;;;;;;;;;4999524;28;20054;-55
2022/03/02 10:24:48;;;;;;;77.18;21.10;;;;;;;;;;4996702;28;20060;-53
2022/03/02 10:27:34;;;;;;;65.65;19.60;;;;;;;;;;4996870;28;20042;-55
2022/03/02 10:30:03;;;;;;;50.92;22.02;;;;;;;;;;4990028;28;20043;-53
2022/03/02 10:32:32;;;;;;;55.50;21.10;;;;;;;;;;4999709;28;20062;-55
2022/03/02 10:35:02;;;;;;;45.40;20.30;;;;;;;;;;5000001;28;20109;-54
2022/03/02 10:37:36;;;;;;;44.13;16.88;;;;;;;;;;4983115;28;20082;-55
2022/03/02 10:40:15;;;;;;;39.92;16.30;;;;;;;;;;4982293;28;20042;-55
2022/03/02 10:42:41;;;;;;;75.18;19.25;;;;;;;;;;4978824;28;20073;-55
2022/03/02 10:45:13;;;;;;;58.50;19.75;;;;;;;;;;4980199;28;20043;-52
2022/03/02 10:47:46;;;;;;;49.85;16.98;;;;;;;;;;5003721;28;20034;-53
2022/03/02 10:50:13;;;;;;;56.65;16.98;;;;;;;;;;5011471;28;20057;-56
2022/03/02 10:52:39;;;;;;;37.38;15.30;;;;;;;;;;4999158;28;20041;-55
2022/03/02 10:55:09;;;;;;;51.70;15.50;;;;;;;;;;5000882;28;20092;-52
2022/03/02 10:57:36;;;;;;;37.38;14.55;;;;;;;;;;4999881;28;20041;-56
2022/03/02 11:00:09;;;;;;;51.15;14.45;;;;;;;;;;5003510;28;20069;-55
2022/03/02 11:02:38;;;;;;;38.60;15.82;;;;;;;;;;5004926;28;20145;-56
2022/03/02 11:05:05;;;;;;;69.57;17.77;;;;;;;;;;4999820;28;20088;-55
2022/03/02 11:07:31;;;;;;;82.10;18.63;;;;;;;;;;5000847;28;20052;-55
2022/03/02 11:10:01;;;;;;;61.60;16.23;;;;;;;;;;4998650;28;20045;-54
2022/03/02 11:12:28;;;;;;;54.10;14.20;;;;;;;;;;4999036;28;20058;-55
2022/03/02 11:14:56;;;;;;;38.47;13.95;;;;;;;;;;5001736;28;20047;-55
2022/03/02 11:17:22;;;;;;;41.40;13.80;;;;;;;;;;4996065;28;20454;-55
2022/03/02 11:19:48;;;;;;;40.25;15.57;;;;;;;;;;5002563;28;20046;-56
2022/03/02 11:22:17;;;;;;;70.55;15.20;;;;;;;;;;4998752;28;20050;-54
2022/03/02 11:24:44;;;;;;;36.95;14.15;;;;;;;;;;5030090;28;20132;-54
2022/03/02 11:27:26;;;;;;;46.38;13.52;;;;;;;;;;5001844;28;20052;-56
2022/03/02 11:30:06;;;;;;;90.95;14.05;;;;;;;;;;4998930;28;20045;-53
2022/03/02 11:32:33;;;;;;;59.58;14.65;;;;;;;;;;4999833;28;20045;-54
2022/03/02 11:35:00;;;;;;;77.15;16.27;;;;;;;;;;4997947;28;21838;-55
2022/03/02 11:37:27;;;;;;;43.92;13.05;;;;;;;;;;5000703;28;20045;-55
2022/03/02 11:39:53;;;;;;;29.95;12.30;;;;;;;;;;5001907;28;20711;-53
2022/03/02 11:42:26;;;;;;;53.30;14.90;;;;;;;;;;4996362;28;20050;-55
2022/03/02 11:44:53;;;;;;;36.38;13.15;;;;;;;;;;4997108;28;20539;-55
2022/03/02 11:47:20;;;;;;;40.72;13.25;;;;;;;;;;4998389;28;20046;-54
2022/03/02 11:49:47;;;;;;;76.50;16.48;;;;;;;;;;4999916;28;20037;-55
2022/03/02 11:52:24;;;;;;;62.20;13.55;;;;;;;;;;4999380;28;20037;-53
2022/03/02 11:54:58;;;;;;;37.15;12.38;;;;;;;;;;4996514;28;20034;-56
2022/03/02 11:57:25;;;;;;;91.25;15.50;;;;;;;;;;4997171;28;20454;-57
2022/03/02 12:00:08;;;;;;;118.70;17.98;;;;;;;;;;4999270;28;20084;-54
2022/03/02 12:02:54;;;;;;;61.33;13.55;;;;;;;;;;4996829;28;20050;-55
2022/03/02 12:05:22;;;;;;;65.15;13.77;;;;;;;;;;4999368;28;20125;-55
2022/03/02 12:07:52;;;;;;;47.67;11.65;;;;;;;;;;5000255;28;20045;-55
2022/03/02 12:10:21;;;;;;;59.08;12.88;;;;;;;;;;4999525;28;20046;-55
2022/03/02 12:12:47;;;;;;;33.30;11.95;;;;;;;;;;5006361;28;20041;-55
2022/03/02 12:15:13;;;;;;;36.28;12.20;;;;;;;;;;4997605;28;20034;-52
2022/03/02 12:17:39;;;;;;;27.40;11.75;;;;;;;;;;4999334;28;20042;-55
2022/03/02 12:20:10;;;;;;;26.48;11.38;;;;;;;;;;5015527;28;20443;-53
2022/03/02 12:22:37;;;;;;;30.05;9.75;;;;;;;;;;4998061;28;20041;-55
2022/03/02 12:25:04;;;;;;;32.15;11.38;;;;;;;;;;5011075;28;20054;-54
2022/03/02 12:27:30;;;;;;;23.42;9.68;;;;;;;;;;4998879;28;20075;-54
2022/03/02 12:30:01;;;;;;;36.78;10.15;;;;;;;;;;5030888;28;20152;-51
2022/03/02 12:32:29;;;;;;;53.58;11.43;;;;;;;;;;4996823;28;20066;-52
2022/03/02 12:34:55;;;;;;;48.83;11.68;;;;;;;;;;5011563;28;20048;-55
2022/03/02 12:37:22;;;;;;;25.13;9.85;;;;;;;;;;4995674;28;20404;-55
2022/03/02 12:39:48;;;;;;;38.13;11.13;;;;;;;;;;4998128;28;21311;-54
2022/03/02 12:42:15;;;;;;;38.92;11.27;;;;;;;;;;4997104;28;20120;-55
2022/03/02 12:44:48;;;;;;;38.22;12.02;;;;;;;;;;4996537;28;20042;-53
2022/03/02 12:47:16;;;;;;;27.92;11.38;;;;;;;;;;4999249;28;20376;-52
2022/03/02 12:49:43;;;;;;;48.17;12.05;;;;;;;;;;5020567;28;20214;-54
2022/03/02 12:52:10;;;;;;;29.23;11.35;;;;;;;;;;4995047;28;20034;-55
2022/03/02 12:54:38;;;;;;;34.08;10.70;;;;;;;;;;4996722;28;20113;-55
2022/03/02 12:57:06;;;;;;;33.72;10.35;;;;;;;;;;4998990;28;20508;-53
2022/03/02 12:59:32;;;;;;;24.75;10.45;;;;;;;;;;4997605;28;20045;-54
2022/03/02 13:01:58;;;;;;;56.42;12.93;;;;;;;;;;4997816;28;20156;-54
2022/03/02 13:04:28;;;;;;;34.40;11.25;;;;;;;;;;5001739;28;20092;-52
2022/03/02 13:06:58;;;;;;;61.28;13.35;;;;;;;;;;5001763;28;20038;-54
2022/03/02 13:09:26;;;;;;;29.30;10.57;;;;;;;;;;5002059;28;20046;-55
2022/03/02 13:11:52;;;;;;;24.30;9.93;;;;;;;;;;5000658;28;20077;-53
2022/03/02 13:14:33;;;;;;;19.63;9.63;;;;;;;;;;4997362;28;20587;-54
2022/03/02 13:17:19;;;;;;;28.85;9.95;;;;;;;;;;5006920;28;20468;-53
2022/03/02 13:19:45;;;;;;;23.02;10.18;;;;;;;;;;5001035;28;20046;-54
2022/03/02 13:22:22;;;;;;;24.30;9.50;;;;;;;;;;4999052;28;20111;-55
2022/03/02 13:24:50;;;;;;;17.58;8.93;;;;;;;;;;5006920;28;20049;-55
2022/03/02 13:27:16;;;;;;;19.08;8.98;;;;;;;;;;5004197;28;20050;-55
2022/03/02 13:30:08;;;;;;;23.25;9.30;;;;;;;;;;4998325;28;20575;-56
2022/03/02 13:32:54;;;;;;;20.58;9.52;;;;;;;;;;4993191;28;20045;-54
2022/03/02 13:35:22;;;;;;;21.10;9.30;;;;;;;;;;4996794;28;20091;-56
2022/03/02 13:37:56;;;;;;;24.35;9.90;;;;;;;;;;4998630;28;20061;-53
2022/03/02 13:40:34;;;;;;;26.80;10.93;;;;;;;;;;4996057;28;20388;-56
2022/03/02 13:43:06;;;;;;;25.40;10.20;;;;;;;;;;4996848;28;20058;-52
2022/03/02 13:45:33;;;;;;;23.75;9.98;;;;;;;;;;4995918;28;20105;-56
2022/03/02 13:48:18;;;;;;;22.77;10.00;;;;;;;;;;5000031;28;20038;-56
2022/03/02 13:50:55;;;;;;;19.52;9.77;;;;;;;;;;4995297;28;20042;-55
2022/03/02 13:53:37;;;;;;;29.95;9.25;;;;;;;;;;4996916;28;20118;-56
2022/03/02 13:56:05;;;;;;;34.60;11.38;;;;;;;;;;5010971;28;20464;-54
2022/03/02 13:58:31;;;;;;;33.22;11.55;;;;;;;;;;5006085;28;21033;-53
2022/03/02 14:01:25;;;;;;;37.03;10.80;;;;;;;;;;5011117;28;20057;-57
2022/03/02 14:04:04;;;;;;;40.13;12.05;;;;;;;;;;4991432;28;20046;-55
2022/03/02 14:06:31;;;;;;;52.10;10.70;;;;;;;;;;4979744;28;20041;-56
2022/03/02 14:08:57;;;;;;;33.83;10.60;;;;;;;;;;4983395;28;20484;-55
2022/03/02 14:11:27;;;;;;;39.35;11.43;;;;;;;;;;4985830;28;20062;-55
2022/03/02 14:13:53;;;;;;;35.50;11.60;;;;;;;;;;4983658;28;20042;-55
2022/03/02 14:16:19;;;;;;;33.80;10.43;;;;;;;;;;4982137;28;20543;-55
2022/03/02 14:18:47;;;;;;;53.22;10.50;;;;;;;;;;4982798;28;20555;-56
2022/03/02 14:21:13;;;;;;;38.75;10.68;;;;;;;;;;4981040;28;20035;-54
2022/03/02 14:23:46;;;;;;;20.65;8.75;;;;;;;;;;4983266;28;20046;-52